createdAt,value
2022-09-27T00:01:13.306Z,99498.72
2022-09-27T00:03:41.835Z,99496.78
2022-09-27T00:06:13.356Z,99496.31
2022-09-27T00:08:41.385Z,99493.22
2022-09-27T00:11:17.707Z,99484.63
2022-09-27T00:13:45.800Z,99489.09
2022-09-27T00:16:13.430Z,99489.97
2022-09-27T00:18:41.081Z,99479.47
2022-09-27T00:21:12.032Z,99483.94
2022-09-27T00:23:40.510Z,99480.56
2022-09-27T00:26:10.771Z,99474.41
2022-09-27T00:28:38.931Z,99472.41
2022-09-27T00:31:17.707Z,99462.59
2022-09-27T00:33:46.016Z,99465.22
2022-09-27T00:36:14.282Z,99453.06
2022-09-27T00:38:42.333Z,99451.19
2022-09-27T00:41:21.742Z,99441.31
2022-09-27T00:43:58.354Z,99435.31
2022-09-27T00:46:28.884Z,99428.81
2022-09-27T00:49:22.355Z,99426.00
2022-09-27T00:51:55.954Z,99424.19
2022-09-27T00:54:26.611Z,99415.53
2022-09-27T00:56:55.156Z,99415.25
2022-09-27T00:59:29.033Z,99406.00
2022-09-27T01:01:57.261Z,99409.25
2022-09-27T01:04:28.070Z,99404.13
2022-09-27T01:06:55.803Z,99402.91
2022-09-27T01:09:25.071Z,99406.63
2022-09-27T01:12:37.187Z,99405.34
2022-09-27T01:15:33.871Z,99400.75
2022-09-27T01:18:04.983Z,99402.91
2022-09-27T01:20:48.263Z,99398.59
2022-09-27T01:23:59.680Z,99391.03
2022-09-27T01:26:46.754Z,99397.84
2022-09-27T01:29:39.863Z,99390.87
2022-09-27T01:32:31.026Z,99387.03
2022-09-27T01:35:05.665Z,99382.56
2022-09-27T01:37:44.515Z,99384.88
2022-09-27T01:40:30.382Z,99390.19
2022-09-27T01:43:09.715Z,99382.03
2022-09-27T01:45:56.869Z,99378.84
2022-09-27T01:48:37.575Z,99384.44
2022-09-27T01:51:11.774Z,99383.63
2022-09-27T01:53:43.802Z,99385.41
2022-09-27T01:56:18.522Z,99379.72
2022-09-27T01:58:51.969Z,99378.41
2022-09-27T02:01:22.848Z,99371.41
2022-09-27T02:03:53.161Z,99375.44
2022-09-27T02:06:31.227Z,99376.09
2022-09-27T02:09:11.430Z,99366.00
2022-09-27T02:11:53.984Z,99374.66
2022-09-27T02:14:44.655Z,99364.34
2022-09-27T02:17:18.591Z,99363.44
2022-09-27T02:20:00.813Z,99365.06
2022-09-27T02:23:03.662Z,99373.25
2022-09-27T02:25:43.226Z,99376.41
2022-09-27T02:28:37.931Z,99369.97
2022-09-27T02:31:06.443Z,99363.03
2022-09-27T02:33:39.406Z,99363.69
2022-09-27T02:36:09.123Z,99356.00
2022-09-27T02:38:37.421Z,99349.41
2022-09-27T02:41:22.376Z,99345.09
2022-09-27T02:43:55.904Z,99343.09
2022-09-27T02:46:24.311Z,99352.47
2022-09-27T02:49:10.701Z,99336.16
2022-09-27T02:51:52.182Z,99333.53
2022-09-27T02:54:49.835Z,99336.16
2022-09-27T02:57:46.966Z,99341.69
2022-09-27T03:00:31.454Z,99339.53
2022-09-27T03:03:28.720Z,99339.38
2022-09-27T03:06:18.585Z,99345.06
2022-09-27T03:08:47.098Z,99337.97
2022-09-27T03:11:15.799Z,99340.91
2022-09-27T03:14:01.896Z,99335.34
2022-09-27T03:16:33.603Z,99341.84
2022-09-27T03:19:02.252Z,99332.84
2022-09-27T03:21:31.881Z,99328.44
2022-09-27T03:23:59.808Z,99332.75
2022-09-27T03:26:27.644Z,99336.66
2022-09-27T03:28:55.303Z,99338.63
2022-09-27T03:31:23.451Z,99340.97
2022-09-27T03:33:52.474Z,99340.06
2022-09-27T03:36:20.363Z,99345.22
2022-09-27T03:38:48.288Z,99341.06
2022-09-27T03:41:16.409Z,99342.34
2022-09-27T03:43:44.161Z,99342.09
2022-09-27T03:46:12.347Z,99339.88
2022-09-27T03:48:42.002Z,99339.06
2022-09-27T03:51:12.315Z,99336.31
2022-09-27T03:53:40.422Z,99352.06
2022-09-27T03:56:09.607Z,99335.25
2022-09-27T03:58:37.295Z,99338.34
2022-09-27T04:01:05.674Z,99339.03
2022-09-27T04:03:35.132Z,99335.75
2022-09-27T04:06:08.057Z,99324.63
2022-09-27T04:08:36.642Z,99333.06
2022-09-27T04:11:05.811Z,99320.03
2022-09-27T04:13:33.651Z,99319.00
2022-09-27T04:16:03.031Z,99315.44
2022-09-27T04:18:32.185Z,99324.00
2022-09-27T04:21:02.191Z,99319.28
2022-09-27T04:23:30.974Z,99318.09
2022-09-27T04:25:58.866Z,99315.66
2022-09-27T04:28:30.227Z,99316.28
2022-09-27T04:30:58.434Z,99315.44
2022-09-27T04:33:27.752Z,99312.94
2022-09-27T04:36:15.996Z,99321.94
2022-09-27T04:38:48.551Z,99328.09
2022-09-27T04:41:21.701Z,99323.56
2022-09-27T04:43:54.122Z,99329.69
2022-09-27T04:46:25.119Z,99330.72
2022-09-27T04:48:53.112Z,99323.31
2022-09-27T04:51:21.078Z,99328.91
2022-09-27T04:53:48.838Z,99331.56
2022-09-27T04:56:17.394Z,99333.78
2022-09-27T04:58:45.180Z,99338.72
2022-09-27T05:01:13.737Z,99330.66
2022-09-27T05:03:42.171Z,99319.56
2022-09-27T05:06:09.873Z,99328.31
2022-09-27T05:08:37.536Z,99335.75
2022-09-27T05:11:09.063Z,99320.25
2022-09-27T05:13:36.670Z,99332.31
2022-09-27T05:16:05.021Z,99323.50
2022-09-27T05:18:34.825Z,99316.63
2022-09-27T05:21:05.526Z,99315.16
2022-09-27T05:23:33.668Z,99312.88
2022-09-27T05:26:08.324Z,99309.94
2022-09-27T05:28:36.305Z,99307.13
2022-09-27T05:31:04.467Z,99304.03
2022-09-27T05:33:34.442Z,99309.34
2022-09-27T05:36:04.531Z,99304.44
2022-09-27T05:38:32.547Z,99305.78
2022-09-27T05:41:00.516Z,99304.25
2022-09-27T05:43:28.914Z,99297.59
2022-09-27T05:45:56.923Z,99295.13
2022-09-27T05:48:24.989Z,99299.44
2022-09-27T05:50:53.205Z,99303.62
2022-09-27T05:53:20.828Z,99295.47
2022-09-27T05:55:49.714Z,99300.34
2022-09-27T05:58:18.062Z,99295.88
2022-09-27T06:00:46.407Z,99294.34
2022-09-27T06:03:15.911Z,99287.50
2022-09-27T06:05:51.094Z,99298.34
2022-09-27T06:08:20.633Z,99302.03
2022-09-27T06:10:48.965Z,99296.38
2022-09-27T06:13:17.348Z,99307.78
2022-09-27T06:15:47.295Z,99308.50
2022-09-27T06:18:18.019Z,99296.50
2022-09-27T06:20:47.542Z,99302.06
2022-09-27T06:23:20.484Z,99300.66
2022-09-27T06:25:50.730Z,99302.34
2022-09-27T06:28:22.034Z,99304.59
2022-09-27T06:30:51.150Z,99299.78
2022-09-27T06:33:20.357Z,99298.38
2022-09-27T06:35:50.045Z,99293.59
2022-09-27T06:38:18.838Z,99281.44
2022-09-27T06:40:47.415Z,99283.94
2022-09-27T06:43:17.547Z,99275.59
2022-09-27T06:45:46.605Z,99276.25
2022-09-27T06:48:20.826Z,99276.34
2022-09-27T06:50:49.278Z,99274.66
2022-09-27T06:53:17.815Z,99276.19
2022-09-27T06:55:45.864Z,99286.38
2022-09-27T06:58:43.499Z,99286.53
2022-09-27T07:01:14.140Z,99286.22
2022-09-27T07:03:53.063Z,99277.28
2022-09-27T07:06:23.828Z,99278.31
2022-09-27T07:08:53.217Z,99284.22
2022-09-27T07:11:23.611Z,99283.44
2022-09-27T07:13:53.235Z,99281.59
2022-09-27T07:16:20.949Z,99273.72
2022-09-27T07:18:50.283Z,99270.19
2022-09-27T07:21:18.277Z,99270.34
2022-09-27T07:23:46.599Z,99274.91
2022-09-27T07:26:14.571Z,99271.53
2022-09-27T07:28:42.584Z,99273.34
2022-09-27T07:31:13.382Z,99267.16
2022-09-27T07:33:43.520Z,99267.88
2022-09-27T07:36:14.253Z,99269.16
2022-09-27T07:38:42.408Z,99265.91
2022-09-27T07:41:14.052Z,99266.81
2022-09-27T07:44:02.149Z,99262.53
2022-09-27T07:47:03.127Z,99268.84
2022-09-27T07:50:07.147Z,99271.38
2022-09-27T07:53:08.149Z,99269.09
2022-09-27T07:56:09.142Z,99259.19
2022-09-27T07:59:10.162Z,99270.16
2022-09-27T08:02:12.173Z,99264.88
2022-09-27T08:05:13.134Z,99272.00
2022-09-27T08:08:14.118Z,99276.16
2022-09-27T08:11:15.166Z,99272.47
2022-09-27T08:14:16.140Z,99278.84
2022-09-27T08:17:18.152Z,99267.78
2022-09-27T08:19:59.400Z,99269.37
2022-09-27T08:22:27.449Z,99260.50
2022-09-27T08:24:55.402Z,99267.53
2022-09-27T08:27:23.091Z,99251.25
2022-09-27T08:29:52.179Z,99248.06
2022-09-27T08:32:23.266Z,99252.38
2022-09-27T08:34:51.700Z,99245.25
2022-09-27T08:37:21.157Z,99249.94
2022-09-27T08:39:50.281Z,99246.31
2022-09-27T08:42:21.067Z,99256.38
2022-09-27T08:45:13.984Z,99252.63
2022-09-27T08:47:44.336Z,99253.25
2022-09-27T08:50:42.641Z,99245.13
2022-09-27T08:53:13.675Z,99251.06
2022-09-27T08:55:44.764Z,99250.06
2022-09-27T08:58:19.600Z,99248.69
2022-09-27T09:00:52.089Z,99243.56
2022-09-27T09:03:28.240Z,99245.94
2022-09-27T09:06:24.049Z,99241.59
2022-09-27T09:09:11.273Z,99241.78
2022-09-27T09:12:19.523Z,99240.84
2022-09-27T09:15:19.618Z,99246.69
2022-09-27T09:17:57.356Z,99251.31
2022-09-27T09:20:44.360Z,99248.88
2022-09-27T09:23:26.990Z,99253.84
2022-09-27T09:26:20.247Z,99241.47
2022-09-27T09:29:04.135Z,99221.66
2022-09-27T09:31:43.913Z,99235.22
2022-09-27T09:34:20.651Z,99225.44
2022-09-27T09:36:59.830Z,99218.44
2022-09-27T09:39:36.119Z,99223.03
2022-09-27T09:42:13.405Z,99220.00
2022-09-27T09:44:59.880Z,99216.72
2022-09-27T09:47:41.705Z,99219.47
2022-09-27T09:50:26.977Z,99220.16
2022-09-27T09:53:04.254Z,99221.69
2022-09-27T09:55:36.606Z,99221.72
2022-09-27T09:58:35.039Z,99221.28
2022-09-27T10:01:43.909Z,99218.31
2022-09-27T10:04:24.902Z,99208.91
2022-09-27T10:06:53.742Z,99209.09
2022-09-27T10:09:26.469Z,99204.34
2022-09-27T10:11:55.683Z,99205.59
2022-09-27T10:14:26.429Z,99198.50
2022-09-27T10:17:04.191Z,99204.53
2022-09-27T10:19:37.378Z,99202.63
2022-09-27T10:22:17.288Z,99205.91
2022-09-27T10:24:58.757Z,99194.19
2022-09-27T10:27:28.621Z,99192.44
2022-09-27T10:30:00.742Z,99194.84
2022-09-27T10:32:36.617Z,99185.87
2022-09-27T10:35:49.334Z,99192.63
2022-09-27T10:38:24.325Z,99192.59
2022-09-27T10:40:56.810Z,99194.63
2022-09-27T10:43:29.600Z,99180.84
2022-09-27T10:46:34.007Z,99177.87
2022-09-27T10:49:25.354Z,99176.97
2022-09-27T10:52:18.719Z,99173.34
2022-09-27T10:55:18.583Z,99168.81
2022-09-27T10:57:52.778Z,99166.03
2022-09-27T11:00:27.804Z,99173.00
2022-09-27T11:03:16.559Z,99168.84
2022-09-27T11:05:45.426Z,99155.00
2022-09-27T11:08:19.347Z,99148.47
2022-09-27T11:11:04.760Z,99151.59
2022-09-27T11:13:34.599Z,99151.00
2022-09-27T11:16:22.514Z,99136.78
2022-09-27T11:19:19.051Z,99133.72
2022-09-27T11:22:24.605Z,99130.13
2022-09-27T11:25:31.558Z,99129.53
2022-09-27T11:28:10.628Z,99126.16
2022-09-27T11:30:54.053Z,99118.72
2022-09-27T11:33:51.988Z,99121.22
2022-09-27T11:36:35.870Z,99110.66
2022-09-27T11:39:38.401Z,99110.94
2022-09-27T11:42:25.075Z,99105.50
2022-09-27T11:48:12.224Z,99100.09
2022-09-27T11:51:02.457Z,99097.56
2022-09-27T11:53:55.121Z,99090.78
2022-09-27T11:56:39.921Z,99081.22
2022-09-27T11:59:29.774Z,99090.53
2022-09-27T12:02:22.108Z,99076.19
2022-09-27T12:05:31.484Z,99078.81
2022-09-27T12:08:27.901Z,99085.06
2022-09-27T12:11:06.190Z,99078.97
2022-09-27T12:13:52.519Z,99072.84
2022-09-27T12:16:22.827Z,99077.53
2022-09-27T12:18:52.756Z,99071.16
2022-09-27T12:21:22.525Z,99070.25
2022-09-27T12:23:54.238Z,99069.56
2022-09-27T12:26:28.123Z,99070.63
2022-09-27T12:29:06.410Z,99058.66
2022-09-27T12:31:43.465Z,99047.09
2022-09-27T12:34:20.094Z,99048.25
2022-09-27T12:37:28.146Z,99043.03
2022-09-27T12:40:22.721Z,99042.25
2022-09-27T12:43:02.762Z,99037.81
2022-09-27T12:45:49.697Z,99042.34
2022-09-27T12:48:18.145Z,99038.47
2022-09-27T12:51:12.878Z,99039.66
2022-09-27T12:54:01.581Z,99033.59
2022-09-27T12:56:53.431Z,99025.56
2022-09-27T12:59:36.544Z,99021.94
2022-09-27T13:02:32.728Z,99019.22
2022-09-27T13:05:27.312Z,99019.22
2022-09-27T13:08:13.790Z,99018.16
2022-09-27T13:10:41.743Z,99007.66
2022-09-27T13:13:16.943Z,98997.88
2022-09-27T13:15:46.590Z,98988.72
2022-09-27T13:18:38.215Z,98984.22
2022-09-27T13:21:08.511Z,98982.59
2022-09-27T13:23:39.294Z,98978.28
2022-09-27T13:26:08.348Z,98978.69
2022-09-27T13:29:02.045Z,98980.44
2022-09-27T13:32:12.516Z,98975.44
2022-09-27T13:34:47.035Z,98974.34
2022-09-27T13:37:36.919Z,98972.59
2022-09-27T13:40:31.745Z,98975.00
2022-09-27T13:43:13.278Z,98968.09
2022-09-27T13:45:50.964Z,98967.81
2022-09-27T13:48:26.605Z,98969.56
2022-09-27T13:50:57.737Z,98964.63
2022-09-27T13:53:34.909Z,98965.72
2022-09-27T13:56:03.162Z,98956.34
2022-09-27T13:58:38.273Z,98952.28
2022-09-27T14:01:24.683Z,98937.59
2022-09-27T14:04:01.099Z,98942.94
2022-09-27T14:06:35.652Z,98929.16
2022-09-27T14:09:15.769Z,98924.38
2022-09-27T14:11:48.669Z,98911.78
2022-09-27T14:14:23.296Z,98911.69
2022-09-27T14:16:54.014Z,98918.13
2022-09-27T14:19:25.743Z,98911.09
2022-09-27T14:21:54.426Z,98908.97
2022-09-27T14:24:28.668Z,98910.41
2022-09-27T14:27:10.435Z,98900.56
2022-09-27T14:30:14.618Z,98896.41
2022-09-27T14:32:50.955Z,98902.38
2022-09-27T14:35:42.730Z,98895.47
2022-09-27T14:38:36.174Z,98891.75
2022-09-27T14:41:03.910Z,98897.53
2022-09-27T14:43:34.626Z,98901.63
2022-09-27T14:46:05.827Z,98904.50
2022-09-27T14:48:39.003Z,98901.38
2022-09-27T14:51:14.690Z,98901.03
2022-09-27T14:53:45.717Z,98896.84
2022-09-27T14:56:18.283Z,98904.50
2022-09-27T14:58:48.144Z,98891.28
2022-09-27T15:01:18.735Z,98896.03
2022-09-27T15:03:49.047Z,98898.47
2022-09-27T15:06:17.532Z,98906.22
2022-09-27T15:08:49.361Z,98907.59
2022-09-27T15:11:19.500Z,98909.41
2022-09-27T15:13:52.610Z,98917.16
2022-09-27T15:16:23.336Z,98918.72
2022-09-27T15:19:05.788Z,98920.97
2022-09-27T15:21:36.485Z,98922.69
2022-09-27T15:24:05.917Z,98925.69
2022-09-27T15:26:40.095Z,98920.38
2022-09-27T15:29:23.063Z,98921.03
2022-09-27T15:32:03.836Z,98923.78
2022-09-27T15:34:34.390Z,98925.38
2022-09-27T15:37:06.596Z,98922.91
2022-09-27T15:39:37.387Z,98931.53
2022-09-27T15:42:19.674Z,98926.69
2022-09-27T15:44:51.354Z,98923.19
2022-09-27T15:47:40.429Z,98928.75
2022-09-27T15:50:17.008Z,98935.06
2022-09-27T15:52:51.244Z,98932.81
2022-09-27T15:55:21.225Z,98925.87
2022-09-27T15:57:55.227Z,98919.47
2022-09-27T16:00:23.005Z,98929.31
2022-09-27T16:02:51.016Z,98926.37
2022-09-27T16:05:18.750Z,98926.66
2022-09-27T16:07:46.519Z,98935.56
2022-09-27T16:10:23.650Z,98934.97
2022-09-27T16:12:51.227Z,98928.88
2022-09-27T16:15:19.232Z,98930.75
2022-09-27T16:17:46.742Z,98929.19
2022-09-27T16:20:25.045Z,98928.69
2022-09-27T16:22:54.575Z,98929.09
2022-09-27T16:25:23.441Z,98922.06
2022-09-27T16:27:52.487Z,98916.63
2022-09-27T16:30:20.797Z,98915.50
2022-09-27T16:32:49.370Z,98923.66
2022-09-27T16:35:18.155Z,98930.00
2022-09-27T16:37:46.565Z,98930.06
2022-09-27T16:40:17.954Z,98930.00
2022-09-27T16:42:49.115Z,98928.78
2022-09-27T16:45:19.217Z,98932.84
2022-09-27T16:47:48.086Z,98937.47
2022-09-27T16:50:34.807Z,98942.00
2022-09-27T16:53:02.652Z,98941.87
2022-09-27T16:55:30.195Z,98940.75
2022-09-27T16:57:59.218Z,98928.19
2022-09-27T17:00:27.637Z,98924.88
2022-09-27T17:02:55.616Z,98923.59
2022-09-27T17:05:25.769Z,98925.34
2022-09-27T17:07:54.611Z,98923.44
2022-09-27T17:10:23.160Z,98923.12
2022-09-27T17:12:51.160Z,98929.47
2022-09-27T17:15:19.036Z,98938.78
2022-09-27T17:17:50.265Z,98925.53
2022-09-27T17:20:17.936Z,98929.06
2022-09-27T17:22:45.744Z,98928.59
2022-09-27T17:25:13.282Z,98933.94
2022-09-27T17:27:40.867Z,98943.75
2022-09-27T17:30:09.610Z,98948.03
2022-09-27T17:32:38.572Z,98955.81
2022-09-27T17:35:09.805Z,98956.84
2022-09-27T17:37:37.722Z,98963.00
2022-09-27T17:40:06.168Z,98961.91
2022-09-27T17:42:34.933Z,98968.66
2022-09-27T17:45:03.351Z,98969.34
2022-09-27T17:47:49.478Z,98977.06
2022-09-27T17:50:27.493Z,98983.50
2022-09-27T17:52:57.431Z,98983.91
2022-09-27T17:55:25.815Z,98985.13
2022-09-27T17:57:53.790Z,98989.31
2022-09-27T18:00:21.509Z,98995.16
2022-09-27T18:02:49.462Z,99002.34
2022-09-27T18:05:21.082Z,98999.72
2022-09-27T18:07:49.403Z,98997.56
2022-09-27T18:10:17.913Z,98999.59
2022-09-27T18:12:45.826Z,99000.19
2022-09-27T18:15:17.014Z,98998.00
2022-09-27T18:17:45.903Z,98998.12
2022-09-27T18:20:13.865Z,98994.50
2022-09-27T18:22:41.378Z,98995.06
2022-09-27T18:25:09.239Z,98986.94
2022-09-27T18:27:37.900Z,98993.75
2022-09-27T18:30:06.329Z,98992.72
2022-09-27T18:32:34.039Z,98983.00
2022-09-27T18:35:02.129Z,98979.53
2022-09-27T18:37:30.321Z,98984.72
2022-09-27T18:39:57.978Z,98991.03
2022-09-27T18:42:25.811Z,98999.22
2022-09-27T18:44:53.342Z,98996.13
2022-09-27T18:47:20.936Z,99000.91
2022-09-27T18:49:49.182Z,99007.22
2022-09-27T18:52:16.715Z,99007.19
2022-09-27T18:54:44.309Z,98999.94
2022-09-27T18:57:12.291Z,99011.59
2022-09-27T18:59:39.925Z,99008.47
2022-09-27T19:02:09.635Z,99017.91
2022-09-27T19:04:37.533Z,99017.06
2022-09-27T19:07:05.390Z,99019.56
2022-09-27T19:09:33.334Z,99024.00
2022-09-27T19:12:01.402Z,99029.25
2022-09-27T19:14:29.683Z,99030.78
2022-09-27T19:16:57.317Z,99041.22
2022-09-27T19:19:25.231Z,99045.34
2022-09-27T19:21:52.826Z,99048.97
2022-09-27T19:24:20.414Z,99042.06
2022-09-27T19:26:50.016Z,99042.78
2022-09-27T19:29:17.661Z,99030.03
2022-09-27T19:31:45.545Z,99023.69
2022-09-27T19:34:13.443Z,99024.91
2022-09-27T19:36:41.022Z,99017.16
2022-09-27T19:39:09.105Z,99015.00
2022-09-27T19:41:37.080Z,99018.63
2022-09-27T19:44:04.603Z,99022.00
2022-09-27T19:46:32.249Z,99016.16
2022-09-27T19:49:00.798Z,99021.28
2022-09-27T19:51:28.680Z,99021.41
2022-09-27T19:53:56.979Z,99017.72
2022-09-27T19:56:25.195Z,99011.13
2022-09-27T19:58:52.794Z,99017.87
2022-09-27T20:01:25.124Z,99027.22
2022-09-27T20:03:55.868Z,99027.16
2022-09-27T20:06:23.768Z,99027.69
2022-09-27T20:08:51.641Z,99024.38
2022-09-27T20:11:21.934Z,99022.78
2022-09-27T20:13:52.531Z,99038.84
2022-09-27T20:16:23.016Z,99061.25
2022-09-27T20:18:53.121Z,99065.94
2022-09-27T20:21:22.596Z,99052.31
2022-09-27T20:23:52.041Z,99048.75
2022-09-27T20:26:21.234Z,99053.06
2022-09-27T20:28:51.754Z,99055.13
2022-09-27T20:31:22.307Z,99062.38
2022-09-27T20:33:51.130Z,99061.47
2022-09-27T20:36:21.462Z,99054.72
2022-09-27T20:39:01.185Z,99054.47
2022-09-27T20:41:33.198Z,99049.31
2022-09-27T20:44:03.651Z,99043.75
2022-09-27T20:46:32.462Z,99053.50
2022-09-27T20:49:03.148Z,99038.72
2022-09-27T20:51:34.622Z,99033.87
2022-09-27T20:54:03.893Z,99039.59
2022-09-27T20:56:37.594Z,99032.13
2022-09-27T20:59:18.118Z,99035.53
2022-09-27T21:01:48.581Z,99045.19
2022-09-27T21:04:18.357Z,99038.44
2022-09-27T21:06:46.528Z,99036.81
2022-09-27T21:09:18.957Z,99031.75
2022-09-27T21:11:52.054Z,99023.56
2022-09-27T21:14:19.849Z,99027.59
2022-09-27T21:16:47.825Z,99029.94
2022-09-27T21:19:15.544Z,99032.22
2022-09-27T21:21:43.219Z,99026.22
2022-09-27T21:24:11.565Z,99024.25
2022-09-27T21:26:39.167Z,99022.06
2022-09-27T21:29:09.096Z,99023.72
2022-09-27T21:31:38.691Z,99032.13
2022-09-27T21:34:06.622Z,99027.31
2022-09-27T21:36:37.403Z,99026.31
2022-09-27T21:39:08.456Z,99039.25
2022-09-27T21:41:36.668Z,99034.19
2022-09-27T21:44:05.634Z,99034.00
2022-09-27T21:46:34.208Z,99031.06
2022-09-27T21:49:02.221Z,99045.72
2022-09-27T21:51:32.014Z,99048.03
2022-09-27T21:54:01.751Z,99049.47
2022-09-27T21:56:35.017Z,99048.13
2022-09-27T21:59:03.623Z,99039.16
2022-09-27T22:01:32.978Z,99041.56
2022-09-27T22:04:02.169Z,99045.16
2022-09-27T22:06:32.133Z,99047.25
2022-09-27T22:09:01.069Z,99045.59
2022-09-27T22:11:32.205Z,99045.50
2022-09-27T22:14:00.843Z,99049.69
2022-09-27T22:16:31.973Z,99048.56
2022-09-27T22:19:00.066Z,99048.22
2022-09-27T22:21:29.564Z,99051.88
2022-09-27T22:24:01.905Z,99038.94
2022-09-27T22:26:35.209Z,99032.00
2022-09-27T22:29:02.844Z,99039.97
2022-09-27T22:31:30.408Z,99045.34
2022-09-27T22:34:04.381Z,99045.16
2022-09-27T22:36:33.585Z,99046.81
2022-09-27T22:39:01.579Z,99053.81
2022-09-27T22:41:30.429Z,99042.09
2022-09-27T22:43:58.202Z,99044.97
2022-09-27T22:46:26.153Z,99041.91
2022-09-27T22:48:54.237Z,99043.06
2022-09-27T22:51:21.896Z,99045.72
2022-09-27T22:53:49.836Z,99057.88
2022-09-27T22:56:19.442Z,99064.00
2022-09-27T22:58:48.250Z,99074.41
2022-09-27T23:01:17.616Z,99077.22
2022-09-27T23:03:46.395Z,99078.37
2022-09-27T23:06:16.446Z,99068.50
2022-09-27T23:08:44.845Z,99059.84
2022-09-27T23:11:14.766Z,99075.62
2022-09-27T23:13:43.669Z,99085.72
2022-09-27T23:16:14.905Z,99076.13
2022-09-27T23:18:42.697Z,99083.16
2022-09-27T23:21:13.014Z,99084.66
2022-09-27T23:23:44.852Z,99091.78
2022-09-27T23:26:14.724Z,99095.47
2022-09-27T23:28:43.278Z,99099.97
2022-09-27T23:31:17.126Z,99101.94
2022-09-27T23:33:48.478Z,99117.31
2022-09-27T23:36:19.023Z,99125.59
2022-09-27T23:38:48.592Z,99135.16
2022-09-27T23:41:17.743Z,99146.91
2022-09-27T23:43:46.439Z,99147.81
2022-09-27T23:46:15.528Z,99138.41
2022-09-27T23:48:43.661Z,99135.53
2022-09-27T23:51:12.226Z,99132.47
2022-09-27T23:53:40.700Z,99125.66
2022-09-27T23:56:12.448Z,99119.91
2022-09-27T23:58:42.524Z,99115.63
